LOWS

Salzburg

Airport
ICAO code
LOWS
IATA Code
SZG
Summary
ICAO Region
EUR
ICAO Territory
Location

Himmelreich, Salzburg

Serving
Salzburg
Elevation
1411 ft
Coordinates
47° 47' 42" N , 13° 0' 12" E
KCC
Metar
Observation
LOWS 080950Z 16007KT 9999 FEW045 02/M01 Q1010 NOSIG
Station
Salzburg-Flughafen
Date/Time
2022-12-08 09:50:00
Wind direction
160°
Wind speed
07 kts
Lowest cloud amount
few clouds
Temperature
2°C
Dew point
-1°C
Humidity
80%
QNH
1010 hPa
Weather condition
n/a

International airport serving Salzburg.

Climatology

Temperate Marine climate/Oceanic climate (Köppen climate classification Cfb). Moderately cool summer and comparatively warm winter.

Runways

Designator Length Width Surface Rops
16/34 2750 45 CON Yes/Yes

Airport map

Aerial View

SKYbrary Partners:

Safety knowledge contributed by: